sensor_id;sensor_type;location;lat;lon;timestamp;temperature;humidity
16968;DHT22;64862;54.398;10.126;2023-04-06T00:08:43;3.40;99.90
16968;DHT22;64862;54.398;10.126;2023-04-06T00:18:45;3.20;99.90
16968;DHT22;64862;54.398;10.126;2023-04-06T00:28:48;3.00;99.90
16968;DHT22;64862;54.398;10.126;2023-04-06T00:38:52;2.80;99.90
16968;DHT22;64862;54.398;10.126;2023-04-06T00:48:56;2.80;99.90
16968;DHT22;64862;54.398;10.126;2023-04-06T00:58:58;2.70;99.90
16968;DHT22;64862;54.398;10.126;2023-04-06T01:09:03;2.60;99.90
16968;DHT22;64862;54.398;10.126;2023-04-06T01:19:08;2.60;99.90
16968;DHT22;64862;54.398;10.126;2023-04-06T01:29:12;2.60;99.90
16968;DHT22;64862;54.398;10.126;2023-04-06T01:39:14;2.50;99.90
16968;DHT22;64862;54.398;10.126;2023-04-06T01:49:18;2.50;99.90
16968;DHT22;64862;54.398;10.126;2023-04-06T01:59:25;2.30;99.90
16968;DHT22;64862;54.398;10.126;2023-04-06T02:09:30;2.40;99.90
16968;DHT22;64862;54.398;10.126;2023-04-06T02:19:32;2.40;99.90
16968;DHT22;64862;54.398;10.126;2023-04-06T02:29:35;2.40;99.90
16968;DHT22;64862;54.398;10.126;2023-04-06T02:39:38;2.40;99.90
16968;DHT22;64862;54.398;10.126;2023-04-06T02:49:44;2.40;99.90
16968;DHT22;64862;54.398;10.126;2023-04-06T02:59:47;2.40;99.90
16968;DHT22;64862;54.398;10.126;2023-04-06T03:09:59;2.40;99.90
16968;DHT22;64862;54.398;10.126;2023-04-06T03:20:01;2.30;99.90
16968;DHT22;64862;54.398;10.126;2023-04-06T03:30:08;2.20;99.90
16968;DHT22;64862;54.398;10.126;2023-04-06T03:40:10;2.40;99.90
16968;DHT22;64862;54.398;10.126;2023-04-06T03:50:14;2.70;99.90
16968;DHT22;64862;54.398;10.126;2023-04-06T04:00:16;3.10;99.90
16968;DHT22;64862;54.398;10.126;2023-04-06T04:10:20;3.30;99.90
16968;DHT22;64862;54.398;10.126;2023-04-06T04:20:22;3.50;99.90
16968;DHT22;64862;54.398;10.126;2023-04-06T04:30:25;3.40;99.90
16968;DHT22;64862;54.398;10.126;2023-04-06T04:40:28;3.40;99.90
16968;DHT22;64862;54.398;10.126;2023-04-06T04:50:40;3.10;99.90
16968;DHT22;64862;54.398;10.126;2023-04-06T05:00:42;2.90;99.90
16968;DHT22;64862;54.398;10.126;2023-04-06T05:10:46;2.70;99.90
16968;DHT22;64862;54.398;10.126;2023-04-06T05:20:49;2.90;99.90
16968;DHT22;64862;54.398;10.126;2023-04-06T05:30:56;3.00;99.90
16968;DHT22;64862;54.398;10.126;2023-04-06T05:41:00;3.20;99.90
16968;DHT22;64862;54.398;10.126;2023-04-06T05:51:07;3.50;99.90
16968;DHT22;64862;54.398;10.126;2023-04-06T06:01:22;3.90;99.90
16968;DHT22;64862;54.398;10.126;2023-04-06T06:11:26;4.50;99.90
16968;DHT22;64862;54.398;10.126;2023-04-06T06:21:28;4.70;99.90
16968;DHT22;64862;54.398;10.126;2023-04-06T06:31:33;4.90;99.90
16968;DHT22;64862;54.398;10.126;2023-04-06T06:41:36;6.00;99.90
16968;DHT22;64862;54.398;10.126;2023-04-06T06:51:40;7.40;99.90
16968;DHT22;64862;54.398;10.126;2023-04-06T07:01:43;7.30;99.90
16968;DHT22;64862;54.398;10.126;2023-04-06T07:11:46;6.80;99.90
16968;DHT22;64862;54.398;10.126;2023-04-06T07:21:48;7.00;99.90
16968;DHT22;64862;54.398;10.126;2023-04-06T07:31:52;7.60;99.90
16968;DHT22;64862;54.398;10.126;2023-04-06T07:41:55;8.10;99.90
16968;DHT22;64862;54.398;10.126;2023-04-06T07:51:58;8.50;99.90
16968;DHT22;64862;54.398;10.126;2023-04-06T08:02:02;8.90;99.90
16968;DHT22;64862;54.398;10.126;2023-04-06T08:12:05;9.40;99.90
16968;DHT22;64862;54.398;10.126;2023-04-06T08:22:08;10.40;99.90
16968;DHT22;64862;54.398;10.126;2023-04-06T08:32:11;11.30;99.90
16968;DHT22;64862;54.398;10.126;2023-04-06T08:42:18;12.50;99.90
16968;DHT22;64862;54.398;10.126;2023-04-06T08:52:22;16.00;99.90
16968;DHT22;64862;54.398;10.126;2023-04-06T09:02:27;17.40;99.90
16968;DHT22;64862;54.398;10.126;2023-04-06T09:12:31;18.20;99.90
16968;DHT22;64862;54.398;10.126;2023-04-06T09:22:37;19.10;97.60
16968;DHT22;64862;54.398;10.126;2023-04-06T09:32:48;19.60;94.10
16968;DHT22;64862;54.398;10.126;2023-04-06T09:42:51;19.30;95.90
16968;DHT22;64862;54.398;10.126;2023-04-06T09:52:58;20.60;93.50
16968;DHT22;64862;54.398;10.126;2023-04-06T10:03:09;20.30;91.90
16968;DHT22;64862;54.398;10.126;2023-04-06T10:13:14;19.70;90.20
16968;DHT22;64862;54.398;10.126;2023-04-06T10:23:21;20.90;88.50
16968;DHT22;64862;54.398;10.126;2023-04-06T10:33:27;20.40;85.30
16968;DHT22;64862;54.398;10.126;2023-04-06T10:43:33;21.50;82.80
16968;DHT22;64862;54.398;10.126;2023-04-06T10:53:37;19.90;85.00
16968;DHT22;64862;54.398;10.126;2023-04-06T11:03:45;19.60;86.20
16968;DHT22;64862;54.398;10.126;2023-04-06T11:13:51;20.20;82.30
16968;DHT22;64862;54.398;10.126;2023-04-06T11:24:07;15.00;91.30
16968;DHT22;64862;54.398;10.126;2023-04-06T11:34:13;13.80;91.50
16968;DHT22;64862;54.398;10.126;2023-04-06T11:44:28;13.10;92.20
16968;DHT22;64862;54.398;10.126;2023-04-06T11:54:34;12.50;92.90
16968;DHT22;64862;54.398;10.126;2023-04-06T12:04:36;12.70;94.70
16968;DHT22;64862;54.398;10.126;2023-04-06T12:14:41;12.80;93.60
16968;DHT22;64862;54.398;10.126;2023-04-06T12:24:43;12.90;93.40
16968;DHT22;64862;54.398;10.126;2023-04-06T12:34:47;12.40;94.60
16968;DHT22;64862;54.398;10.126;2023-04-06T12:44:49;12.50;94.00
16968;DHT22;64862;54.398;10.126;2023-04-06T12:54:52;12.50;95.00
16968;DHT22;64862;54.398;10.126;2023-04-06T13:04:54;12.50;94.00
16968;DHT22;64862;54.398;10.126;2023-04-06T13:14:58;12.40;94.70
16968;DHT22;64862;54.398;10.126;2023-04-06T13:25:00;12.20;94.40
16968;DHT22;64862;54.398;10.126;2023-04-06T13:35:05;12.50;94.00
16968;DHT22;64862;54.398;10.126;2023-04-06T13:45:08;12.50;94.10
16968;DHT22;64862;54.398;10.126;2023-04-06T13:55:14;12.20;96.00
16968;DHT22;64862;54.398;10.126;2023-04-06T14:05:16;12.60;95.20
16968;DHT22;64862;54.398;10.126;2023-04-06T14:15:19;12.40;95.30
16968;DHT22;64862;54.398;10.126;2023-04-06T14:25:22;12.30;95.30
16968;DHT22;64862;54.398;10.126;2023-04-06T14:35:25;12.50;96.10
16968;DHT22;64862;54.398;10.126;2023-04-06T14:45:29;12.30;95.30
16968;DHT22;64862;54.398;10.126;2023-04-06T14:55:32;12.40;94.70
16968;DHT22;64862;54.398;10.126;2023-04-06T15:05:34;12.30;95.10
16968;DHT22;64862;54.398;10.126;2023-04-06T15:15:38;12.20;95.90
16968;DHT22;64862;54.398;10.126;2023-04-06T15:25:40;12.20;95.70
16968;DHT22;64862;54.398;10.126;2023-04-06T15:35:44;12.20;95.20
16968;DHT22;64862;54.398;10.126;2023-04-06T15:45:46;12.20;95.90
16968;DHT22;64862;54.398;10.126;2023-04-06T15:55:49;12.10;96.30
16968;DHT22;64862;54.398;10.126;2023-04-06T16:05:52;12.10;96.30
16968;DHT22;64862;54.398;10.126;2023-04-06T16:15:56;12.00;96.00
16968;DHT22;64862;54.398;10.126;2023-04-06T16:25:58;11.90;95.70
16968;DHT22;64862;54.398;10.126;2023-04-06T16:36:02;11.90;96.00
16968;DHT22;64862;54.398;10.126;2023-04-06T16:46:05;11.70;96.50
16968;DHT22;64862;54.398;10.126;2023-04-06T16:56:08;10.90;99.90
16968;DHT22;64862;54.398;10.126;2023-04-06T17:06:10;10.20;99.90
16968;DHT22;64862;54.398;10.126;2023-04-06T17:16:14;10.00;99.90
16968;DHT22;64862;54.398;10.126;2023-04-06T17:26:15;9.80;99.90
16968;DHT22;64862;54.398;10.126;2023-04-06T17:36:19;9.50;99.90
16968;DHT22;64862;54.398;10.126;2023-04-06T17:46:21;9.10;99.90
16968;DHT22;64862;54.398;10.126;2023-04-06T17:56:24;8.80;99.90
16968;DHT22;64862;54.398;10.126;2023-04-06T18:06:27;8.60;99.90
16968;DHT22;64862;54.398;10.126;2023-04-06T18:16:30;8.30;99.90
16968;DHT22;64862;54.398;10.126;2023-04-06T18:26:33;8.00;99.90
16968;DHT22;64862;54.398;10.126;2023-04-06T18:36:37;7.90;99.90
16968;DHT22;64862;54.398;10.126;2023-04-06T18:46:39;7.70;99.90
16968;DHT22;64862;54.398;10.126;2023-04-06T18:56:47;7.50;99.90
16968;DHT22;64862;54.398;10.126;2023-04-06T19:06:49;7.40;99.90
16968;DHT22;64862;54.398;10.126;2023-04-06T19:16:53;7.40;99.90
16968;DHT22;64862;54.398;10.126;2023-04-06T19:26:55;7.30;99.90
16968;DHT22;64862;54.398;10.126;2023-04-06T19:36:59;7.10;99.90
16968;DHT22;64862;54.398;10.126;2023-04-06T19:47:01;7.10;99.90
16968;DHT22;64862;54.398;10.126;2023-04-06T19:57:04;7.00;99.90
16968;DHT22;64862;54.398;10.126;2023-04-06T20:07:07;6.80;99.90
16968;DHT22;64862;54.398;10.126;2023-04-06T20:17:10;6.80;99.90
16968;DHT22;64862;54.398;10.126;2023-04-06T20:27:12;6.90;99.90
16968;DHT22;64862;54.398;10.126;2023-04-06T20:37:15;6.70;99.90
16968;DHT22;64862;54.398;10.126;2023-04-06T20:47:19;6.60;99.90
16968;DHT22;64862;54.398;10.126;2023-04-06T20:57:23;6.50;99.90
16968;DHT22;64862;54.398;10.126;2023-04-06T21:07:25;6.30;99.90
16968;DHT22;64862;54.398;10.126;2023-04-06T21:17:29;6.20;99.90
16968;DHT22;64862;54.398;10.126;2023-04-06T21:27:31;6.10;99.90
16968;DHT22;64862;54.398;10.126;2023-04-06T21:37:34;6.00;99.90
16968;DHT22;64862;54.398;10.126;2023-04-06T21:47:36;5.90;99.90
16968;DHT22;64862;54.398;10.126;2023-04-06T21:57:40;5.60;99.90
16968;DHT22;64862;54.398;10.126;2023-04-06T22:07:44;5.50;99.90
16968;DHT22;64862;54.398;10.126;2023-04-06T22:17:47;5.30;99.90
16968;DHT22;64862;54.398;10.126;2023-04-06T22:27:49;5.30;99.90
16968;DHT22;64862;54.398;10.126;2023-04-06T22:37:52;5.90;99.90
16968;DHT22;64862;54.398;10.126;2023-04-06T22:47:54;6.00;99.90
16968;DHT22;64862;54.398;10.126;2023-04-06T22:57:58;6.30;99.90
16968;DHT22;64862;54.398;10.126;2023-04-06T23:08:00;6.50;99.90
16968;DHT22;64862;54.398;10.126;2023-04-06T23:18:03;6.50;99.90
16968;DHT22;64862;54.398;10.126;2023-04-06T23:28:05;6.60;99.90
16968;DHT22;64862;54.398;10.126;2023-04-06T23:38:09;6.40;99.90
16968;DHT22;64862;54.398;10.126;2023-04-06T23:48:11;6.40;99.90
16968;DHT22;64862;54.398;10.126;2023-04-06T23:58:14;6.50;99.90
